Time;durP1;ratioP1;P1;durP2;ratioP2;P2;SDS_P1;SDS_P2;PMS_P1;PMS_P2;Temp;Humidity;BMP_temperature;BMP_pressure;BME280_temperature;BME280_humidity;BME280_pressure;Samples;Min_cycle;Max_cycle;Signal;HPM_P1;HPM_P2
2022/09/11 00:01:12;;;;;;;8.83;7.40;;;;;;;12.04;100.00;99240.47;1772921;80;21034;-79
2022/09/11 00:03:39;;;;;;;10.25;8.70;;;;;;;12.06;100.00;99239.67;1762486;80;21103;-77
2022/09/11 00:06:12;;;;;;;9.45;8.08;;;;;;;12.11;100.00;99237.52;1763341;80;21579;-75
2022/09/11 00:08:41;;;;;;;7.47;6.75;;;;;;;12.18;100.00;99236.71;1773432;80;21031;-74
2022/09/11 00:11:12;;;;;;;12.28;7.58;;;;;;;12.18;100.00;99229.41;1769408;80;21090;-75
2022/09/11 00:13:39;;;;;;;8.13;7.33;;;;;;;12.21;100.00;99228.07;1744618;80;20983;-77
2022/09/11 00:16:09;;;;;;;13.28;8.88;;;;;;;12.21;100.00;99222.14;1731000;82;20952;-74
2022/09/11 00:18:35;;;;;;;8.98;8.08;;;;;;;12.22;100.00;99213.52;1763345;81;21035;-75
2022/09/11 00:21:02;;;;;;;10.45;7.67;;;;;;;12.24;100.00;99217.55;1743846;81;21526;-73
2022/09/11 00:23:29;;;;;;;8.85;7.55;;;;;;;12.26;100.00;99211.08;1709274;83;21042;-74
2022/09/11 00:26:00;;;;;;;7.72;6.92;;;;;;;12.32;100.00;99214.04;1734081;81;21581;-73
2022/09/11 00:28:26;;;;;;;12.68;8.98;;;;;;;12.36;100.00;99217.27;1701742;84;21110;-73
2022/09/11 00:31:07;;;;;;;10.45;7.40;;;;;;;12.40;100.00;99208.08;1736941;81;21082;-74
2022/09/11 00:33:34;;;;;;;11.00;7.90;;;;;;;12.45;100.00;99210.23;1745403;81;29335;-73
2022/09/11 00:36:07;;;;;;;10.38;7.15;;;;;;;12.52;100.00;99203.18;1741697;81;21079;-74
2022/09/11 00:38:36;;;;;;;8.85;7.45;;;;;;;12.60;100.00;99200.75;1702072;84;21068;-73
2022/09/11 00:41:07;;;;;;;10.70;8.05;;;;;;;12.65;100.00;99198.58;1739093;81;21026;-72
2022/09/11 00:44:01;;;;;;;9.98;8.55;;;;;;;12.67;100.00;99188.30;1734248;82;21044;-75
2022/09/11 00:46:45;;;;;;;8.20;7.40;;;;;;;12.72;100.00;99190.17;1720841;82;21108;-74
2022/09/11 00:49:39;;;;;;;9.75;7.55;;;;;;;12.79;100.00;99173.96;1758798;81;21496;-75
2022/09/11 00:52:11;;;;;;;16.32;8.15;;;;;;;12.84;100.00;99177.98;1737615;81;20951;-75
2022/09/11 00:55:13;;;;;;;13.53;9.43;;;;;;;12.91;100.00;99158.77;1752314;81;21059;-76
2022/09/11 00:57:51;;;;;;;13.00;8.30;;;;;;;12.94;100.00;99181.99;1759861;81;21030;-74
2022/09/11 01:00:19;;;;;;;8.90;7.95;;;;;;;13.01;100.00;99160.89;1734711;82;21086;-73
2022/09/11 01:02:48;;;;;;;10.50;8.23;;;;;;;13.04;100.00;99174.39;1711236;82;20924;-74
2022/09/11 01:05:15;;;;;;;12.65;7.00;;;;;;;13.02;100.00;99164.39;1725274;82;21038;-74
2022/09/11 01:07:43;;;;;;;8.63;7.70;;;;;;;13.02;100.00;99161.16;1743781;81;21568;-74
2022/09/11 01:10:10;;;;;;;8.63;7.72;;;;;;;13.03;100.00;99168.17;1705483;82;21050;-81
2022/09/11 01:13:00;;;;;;;10.85;8.98;;;;;;;13.06;100.00;99158.70;1720333;82;21147;-76
2022/09/11 01:15:47;;;;;;;13.45;8.25;;;;;;;13.05;100.00;99155.19;1730407;82;21340;-76
2022/09/11 01:18:28;;;;;;;9.28;8.13;;;;;;;13.07;100.00;99153.57;1726147;82;21043;-82
2022/09/11 01:21:21;;;;;;;8.63;7.72;;;;;;;13.09;100.00;99150.84;1734802;82;21050;-79
2022/09/11 01:24:37;;;;;;;11.43;8.50;;;;;;;13.10;100.00;99143.02;1730182;81;20979;-79
2022/09/11 01:27:34;;;;;;;9.58;8.43;;;;;;;13.10;100.00;99163.27;1722376;82;21257;-73
2022/09/11 01:30:13;;;;;;;11.33;7.12;;;;;;;13.09;100.00;99148.71;1761628;81;21047;-72
2022/09/11 01:33:18;;;;;;;11.05;8.13;;;;;;;13.08;100.00;99152.48;1691550;84;21062;-73
2022/09/11 01:35:59;;;;;;;11.05;7.55;;;;;;;13.08;100.00;99149.25;1714045;82;21046;-72
2022/09/11 01:39:01;;;;;;;16.42;8.23;;;;;;;13.11;100.00;99153.30;1720647;81;21098;-72
2022/09/11 01:41:46;;;;;;;9.53;8.45;;;;;;;13.08;100.00;99144.39;1761027;81;21235;-71
2022/09/11 01:44:24;;;;;;;15.63;8.18;;;;;;;13.06;100.00;99135.21;1747232;81;21662;-72
2022/09/11 01:46:51;;;;;;;10.80;8.48;;;;;;;13.06;100.00;99141.15;1756106;81;20968;-72
2022/09/11 01:49:39;;;;;;;13.40;8.48;;;;;;;13.05;100.00;99128.73;1746835;81;20999;-73
2022/09/11 01:52:08;;;;;;;12.28;8.75;;;;;;;13.09;100.00;99123.84;1714884;81;21004;-74
2022/09/11 01:54:42;;;;;;;16.57;8.65;;;;;;;13.11;100.00;99129.00;1740725;82;21146;-73
2022/09/11 01:57:38;;;;;;;12.07;9.03;;;;;;;13.10;100.00;99121.41;1726792;82;21490;-72
2022/09/11 02:00:10;;;;;;;11.55;7.33;;;;;;;13.10;100.00;99121.95;1734585;81;21118;-74
2022/09/11 02:02:51;;;;;;;9.75;8.10;;;;;;;13.12;100.00;99124.41;1734185;82;20975;-74
2022/09/11 02:05:29;;;;;;;11.85;8.05;;;;;;;13.13;100.00;99123.34;1745093;81;21517;-73
2022/09/11 02:08:06;;;;;;;11.10;8.35;;;;;;;13.14;100.00;99116.85;1717693;82;21114;-73
2022/09/11 02:10:41;;;;;;;8.60;7.72;;;;;;;13.18;100.00;99110.61;1739880;81;21059;-74
2022/09/11 02:13:19;;;;;;;10.28;9.03;;;;;;;13.19;100.00;99110.07;1753044;81;21517;-72
2022/09/11 02:15:51;;;;;;;9.60;6.65;;;;;;;13.18;100.00;99110.61;1814085;79;20992;-72
2022/09/11 02:18:25;;;;;;;10.95;7.35;;;;;;;13.17;100.00;99108.99;1789321;79;21040;-75
2022/09/11 02:20:54;;;;;;;8.98;7.35;;;;;;;13.16;100.00;99095.76;1812549;78;21214;-76
2022/09/11 02:23:21;;;;;;;13.25;7.80;;;;;;;13.14;100.00;99103.36;1749790;80;20998;-76
2022/09/11 02:25:50;;;;;;;8.45;7.65;;;;;;;13.15;100.00;99115.74;1735985;80;21081;-70
2022/09/11 02:28:19;;;;;;;8.70;7.17;;;;;;;13.16;100.00;99102.52;1742087;82;21030;-73
2022/09/11 02:30:46;;;;;;;8.60;7.12;;;;;;;13.17;100.00;99091.98;1730004;80;21063;-71
2022/09/11 02:33:31;;;;;;;7.78;6.97;;;;;;;13.21;100.00;99103.28;1743032;80;21517;-70
2022/09/11 02:36:07;;;;;;;10.82;7.65;;;;;;;13.23;100.00;99092.21;1724306;82;21543;-75
2022/09/11 02:38:39;;;;;;;8.45;6.90;;;;;;;13.24;100.00;99099.20;1771742;80;21043;-73
2022/09/11 02:41:14;;;;;;;14.57;8.53;;;;;;;13.20;100.00;99085.47;1763800;80;21059;-79
2022/09/11 02:44:14;;;;;;;11.33;7.70;;;;;;;13.18;100.00;99093.06;1742019;82;21010;-80
2022/09/11 02:47:09;;;;;;;9.58;8.20;;;;;;;13.20;100.00;99092.75;1771954;80;21092;-79
2022/09/11 02:50:16;;;;;;;11.20;8.65;;;;;;;13.21;100.00;99097.08;1720766;80;20944;-78
2022/09/11 02:52:49;;;;;;;13.70;7.15;;;;;;;13.21;100.00;99102.48;1757490;80;21120;-77
2022/09/11 02:56:04;;;;;;;7.90;7.08;;;;;;;13.23;100.00;99093.02;1748355;80;21059;-77
2022/09/11 02:58:46;;;;;;;8.35;7.65;;;;;;;13.23;100.00;99096.27;1744673;80;21515;-78
2022/09/11 03:01:13;;;;;;;13.45;8.10;;;;;;;13.22;100.00;99094.10;1733869;81;21253;-80
2022/09/11 03:03:44;;;;;;;11.53;7.12;;;;;;;13.20;100.00;99094.92;1742846;82;21117;-78
2022/09/11 03:06:22;;;;;;;11.50;7.87;;;;;;;13.22;100.00;99092.75;1743083;82;21579;-78
2022/09/11 03:08:49;;;;;;;8.10;7.03;;;;;;;13.24;100.00;99104.06;1741674;82;21058;-75
2022/09/11 03:11:16;;;;;;;7.58;6.87;;;;;;;13.26;100.00;99103.79;1768750;80;21006;-75
2022/09/11 03:13:44;;;;;;;7.05;5.97;;;;;;;13.27;100.00;99109.46;1781359;79;22087;-75
2022/09/11 03:16:11;;;;;;;14.30;8.15;;;;;;;13.28;100.00;99100.28;1787250;79;21022;-75
2022/09/11 03:18:38;;;;;;;7.65;6.85;;;;;;;13.32;100.00;99110.23;1787240;79;21042;-77
2022/09/11 03:21:05;;;;;;;13.32;8.58;;;;;;;13.32;100.00;99107.53;1790962;79;21063;-76
2022/09/11 03:23:31;;;;;;;8.18;7.05;;;;;;;13.31;100.00;99114.56;1782041;80;21062;-78
2022/09/11 03:25:58;;;;;;;8.48;6.80;;;;;;;13.30;100.00;99114.29;1786563;79;21057;-78
2022/09/11 03:28:24;;;;;;;10.70;7.10;;;;;;;13.28;100.00;99120.53;1787158;79;21011;-74
2022/09/11 03:30:52;;;;;;;12.45;8.40;;;;;;;13.26;100.00;99123.50;1795924;79;21023;-76
2022/09/11 03:33:19;;;;;;;10.08;8.10;;;;;;;13.25;100.00;99121.08;1791427;79;21052;-77
2022/09/11 03:35:46;;;;;;;8.28;7.28;;;;;;;13.26;100.00;99113.24;1791089;80;21002;-78
2022/09/11 03:38:14;;;;;;;8.45;7.65;;;;;;;13.25;100.00;99108.92;1801708;79;21781;-76
2022/09/11 03:40:42;;;;;;;10.32;7.05;;;;;;;13.26;100.00;99108.66;1782330;79;20964;-79
2022/09/11 03:43:11;;;;;;;8.83;7.95;;;;;;;13.26;100.00;99118.10;1766893;79;20937;-77
2022/09/11 03:45:38;;;;;;;8.70;7.53;;;;;;;13.28;100.00;99127.28;1780308;80;21069;-75
2022/09/11 03:48:05;;;;;;;9.58;7.50;;;;;;;13.28;100.00;99126.75;1780777;80;21204;-76
2022/09/11 03:50:32;;;;;;;9.68;7.45;;;;;;;13.29;100.00;99124.82;1790370;79;21255;-76
2022/09/11 03:52:59;;;;;;;8.18;7.37;;;;;;;13.28;100.00;99126.75;1762873;79;21485;-78
2022/09/11 03:55:27;;;;;;;9.00;8.10;;;;;;;13.29;100.00;99135.08;1785919;79;21560;-77
2022/09/11 03:57:54;;;;;;;8.50;7.70;;;;;;;13.31;100.00;99134.81;1770939;80;21012;-76
2022/09/11 04:00:21;;;;;;;7.30;6.65;;;;;;;13.33;100.00;99139.41;1780966;80;21007;-77
2022/09/11 04:02:48;;;;;;;10.10;7.67;;;;;;;13.32;100.00;99136.44;1781188;79;21327;-75
2022/09/11 04:05:17;;;;;;;10.88;7.53;;;;;;;13.34;100.00;99137.75;1808111;79;21405;-76
2022/09/11 04:07:44;;;;;;;8.58;7.75;;;;;;;13.37;100.00;99143.96;1783095;79;22224;-76
2022/09/11 04:10:10;;;;;;;8.40;7.60;;;;;;;13.34;100.00;99147.20;1781587;80;21438;-77
2022/09/11 04:12:37;;;;;;;7.15;6.40;;;;;;;13.31;100.00;99148.31;1749148;80;21583;-78
2022/09/11 04:15:07;;;;;;;8.60;7.80;;;;;;;13.29;100.00;99148.59;1792440;78;21893;-75
2022/09/11 04:17:35;;;;;;;7.08;6.37;;;;;;;13.30;100.00;99153.45;1776041;79;21572;-77
2022/09/11 04:20:04;;;;;;;7.90;7.00;;;;;;;13.32;100.00;99157.50;1786045;79;21351;-75
2022/09/11 04:22:33;;;;;;;11.28;7.15;;;;;;;13.35;100.00;99160.16;1779726;80;21619;-77
2022/09/11 04:25:00;;;;;;;8.83;6.95;;;;;;;13.37;100.00;99164.22;1785348;79;21079;-77
2022/09/11 04:27:28;;;;;;;7.50;6.47;;;;;;;13.34;100.00;99157.20;1763790;80;21619;-78
2022/09/11 04:29:55;;;;;;;6.65;5.85;;;;;;;13.32;100.00;99163.44;1779558;80;21595;-80
2022/09/11 04:32:21;;;;;;;6.80;6.20;;;;;;;13.35;100.00;99187.17;1788592;79;21089;-78
2022/09/11 04:34:48;;;;;;;6.78;5.15;;;;;;;13.41;100.00;99193.63;1787005;79;21079;-76
2022/09/11 04:37:15;;;;;;;4.30;2.95;;;;;;;13.49;100.00;99197.08;1790101;79;20991;-75
2022/09/11 04:39:42;;;;;;;2.75;2.50;;;;;;;13.53;100.00;99196.77;1757630;80;21498;-75
2022/09/11 04:42:09;;;;;;;2.60;2.40;;;;;;;13.54;100.00;99197.05;1779739;80;21079;-78
2022/09/11 04:44:38;;;;;;;2.27;2.10;;;;;;;13.59;100.00;99189.98;1785872;79;20964;-76
2022/09/11 04:47:04;;;;;;;2.27;2.08;;;;;;;13.62;100.00;99185.39;1780984;79;21090;-80
2022/09/11 04:49:31;;;;;;;2.47;1.95;;;;;;;13.67;100.00;99190.75;1770591;79;21047;-77
2022/09/11 04:52:04;;;;;;;2.60;2.22;;;;;;;13.69;100.00;99180.45;1809311;79;21749;-75
2022/09/11 04:54:29;;;;;;;3.22;2.47;;;;;;;13.71;100.00;99180.98;1811026;79;21008;-76
2022/09/11 04:56:56;;;;;;;2.55;2.20;;;;;;;13.72;100.00;99190.14;1812048;79;21065;-75
2022/09/11 04:59:23;;;;;;;3.08;2.37;;;;;;;13.70;100.00;99181.53;1811862;79;20984;-77
2022/09/11 05:01:55;;;;;;;2.27;2.10;;;;;;;13.70;100.00;99178.02;1775476;79;21691;-76
2022/09/11 05:04:22;;;;;;;2.77;2.55;;;;;;;13.70;100.00;99181.53;1782570;79;21080;-77
2022/09/11 05:06:48;;;;;;;2.75;2.55;;;;;;;13.68;100.00;99188.29;1779909;80;21010;-77
2022/09/11 05:09:17;;;;;;;4.08;2.67;;;;;;;13.68;100.00;99182.88;1803426;79;21074;-74
2022/09/11 05:11:46;;;;;;;3.08;2.70;;;;;;;13.71;100.00;99193.16;1787701;79;21075;-75
2022/09/11 05:14:14;;;;;;;3.05;2.75;;;;;;;13.74;100.00;99190.68;1785699;79;21477;-74
2022/09/11 05:16:44;;;;;;;4.53;3.00;;;;;;;13.78;100.00;99184.97;1781661;80;21303;-75
2022/09/11 05:19:11;;;;;;;3.20;2.90;;;;;;;13.84;100.00;99182.49;1765057;79;21018;-75
2022/09/11 05:21:40;;;;;;;5.70;2.80;;;;;;;13.89;100.00;99186.50;1775001;80;21051;-74
2022/09/11 05:24:08;;;;;;;3.87;2.98;;;;;;;13.94;100.00;99188.36;1774981;80;20948;-74
2022/09/11 05:26:37;;;;;;;3.83;2.98;;;;;;;13.94;100.00;99189.16;1733162;81;21016;-73
2022/09/11 05:29:11;;;;;;;3.45;3.10;;;;;;;13.94;100.00;99193.22;1782969;79;21205;-75
2022/09/11 05:31:46;;;;;;;4.62;3.50;;;;;;;13.95;100.00;99189.98;1782069;79;21502;-76
2022/09/11 05:34:16;;;;;;;3.87;3.50;;;;;;;13.93;100.00;99197.01;1729116;83;21067;-75
2022/09/11 05:36:42;;;;;;;3.92;3.00;;;;;;;13.88;100.00;99190.30;1778463;79;21047;-75
2022/09/11 05:39:09;;;;;;;5.10;3.62;;;;;;;13.94;100.00;99187.00;1759116;81;21567;-74
2022/09/11 05:41:37;;;;;;;8.43;4.62;;;;;;;14.03;100.00;99185.84;1759121;81;21536;-76
2022/09/11 05:44:04;;;;;;;4.75;4.15;;;;;;;14.08;100.00;99194.72;1775067;80;21031;-74
2022/09/11 05:46:32;;;;;;;6.42;4.10;;;;;;;14.15;100.00;99199.23;1788594;79;21562;-75
2022/09/11 05:49:01;;;;;;;5.20;4.45;;;;;;;14.18;100.00;99197.87;1795546;79;21040;-77
2022/09/11 05:51:28;;;;;;;4.00;3.70;;;;;;;14.14;100.00;99203.59;1711109;82;21099;-76
2022/09/11 05:53:57;;;;;;;3.62;2.90;;;;;;;14.08;100.00;99208.23;1775466;79;22207;-73
2022/09/11 05:56:24;;;;;;;2.60;2.40;;;;;;;14.03;100.00;99196.66;1735353;81;21032;-74
2022/09/11 05:58:53;;;;;;;4.85;2.85;;;;;;;13.96;100.00;99201.84;1744018;82;20982;-76
2022/09/11 06:01:24;;;;;;;4.40;3.72;;;;;;;13.95;100.00;99196.73;1720625;82;21091;-76
2022/09/11 06:03:53;;;;;;;5.33;2.77;;;;;;;13.96;100.00;99198.33;1743141;81;21116;-74
2022/09/11 06:06:22;;;;;;;4.80;2.58;;;;;;;13.99;100.00;99201.83;1757696;81;21092;-72
2022/09/11 06:08:51;;;;;;;2.98;2.65;;;;;;;13.98;100.00;99200.21;1761652;81;21114;-76
2022/09/11 06:11:20;;;;;;;2.40;2.20;;;;;;;13.95;100.00;99204.30;1764206;81;20956;-75
2022/09/11 06:13:49;;;;;;;3.25;2.37;;;;;;;13.90;100.00;99200.83;1759355;81;21032;-73
2022/09/11 06:16:19;;;;;;;2.42;2.22;;;;;;;13.85;100.00;99205.73;1753439;80;21579;-75
2022/09/11 06:18:48;;;;;;;2.77;2.58;;;;;;;13.81;100.00;99202.53;1750590;80;21057;-75
2022/09/11 06:21:18;;;;;;;3.67;2.20;;;;;;;13.76;100.00;99208.78;1761714;80;20995;-73
2022/09/11 06:23:51;;;;;;;4.05;2.35;;;;;;;13.75;100.00;99211.22;1770729;80;20947;-74
2022/09/11 06:26:22;;;;;;;2.55;2.35;;;;;;;13.69;100.00;99204.77;1767166;80;21058;-74
2022/09/11 06:28:53;;;;;;;2.08;1.98;;;;;;;13.62;100.00;99203.73;1759472;80;21046;-77
2022/09/11 06:31:28;;;;;;;2.00;1.80;;;;;;;13.58;100.00;99208.63;1720739;82;22040;-75
2022/09/11 06:33:54;;;;;;;1.72;1.62;;;;;;;13.53;100.00;99206.77;1745426;80;21053;-76
2022/09/11 06:38:57;;;;;;;2.00;1.87;;;;;;;13.45;100.00;99204.13;1760572;80;21055;-74
2022/09/11 06:41:26;;;;;;;1.95;1.85;;;;;;;13.50;100.00;99206.80;1772885;80;21551;-76
2022/09/11 06:43:55;;;;;;;2.55;2.15;;;;;;;13.53;100.00;99210.28;1771130;80;21069;-74
2022/09/11 06:46:30;;;;;;;2.87;2.55;;;;;;;13.52;100.00;99215.98;1742990;81;20959;-77
2022/09/11 06:49:01;;;;;;;2.65;1.90;;;;;;;13.51;100.00;99218.42;1727867;82;21022;-75
2022/09/11 06:51:30;;;;;;;2.90;2.70;;;;;;;13.49;100.00;99221.94;1746223;80;21049;-77
2022/09/11 06:54:01;;;;;;;2.98;2.70;;;;;;;13.49;100.00;99224.63;1742588;82;21111;-75
2022/09/11 06:56:33;;;;;;;2.60;2.40;;;;;;;13.51;100.00;99219.23;1748380;80;21621;-75
2022/09/11 06:59:01;;;;;;;3.00;2.77;;;;;;;13.50;100.00;99220.85;1742258;82;21053;-75
2022/09/11 07:01:28;;;;;;;2.92;2.45;;;;;;;13.51;100.00;99223.28;1745114;80;21484;-74
2022/09/11 07:03:57;;;;;;;3.42;3.20;;;;;;;13.54;100.00;99228.11;1742546;80;21165;-76
2022/09/11 07:06:26;;;;;;;3.22;3.00;;;;;;;13.58;100.00;99233.76;1745921;80;21425;-74
2022/09/11 07:08:59;;;;;;;4.30;2.75;;;;;;;13.64;100.00;99242.09;1770988;80;21571;-77
2022/09/11 07:11:28;;;;;;;4.08;2.37;;;;;;;13.56;100.00;99243.24;1746507;80;21135;-73
2022/09/11 07:13:58;;;;;;;5.10;3.02;;;;;;;13.53;100.00;99243.24;1750371;81;21364;-74
2022/09/11 07:16:25;;;;;;;2.92;2.72;;;;;;;13.54;100.00;99241.63;1796554;79;20995;-73
2022/09/11 07:18:53;;;;;;;2.27;2.00;;;;;;;13.59;100.00;99244.84;1782451;80;21086;-76
2022/09/11 07:21:27;;;;;;;9.68;2.92;;;;;;;13.52;100.00;99245.13;1773303;80;21324;-75
2022/09/11 07:24:02;;;;;;;2.60;2.40;;;;;;;13.48;100.00;99248.14;1795668;79;20933;-78
2022/09/11 07:26:32;;;;;;;2.87;2.58;;;;;;;13.51;100.00;99241.38;1759026;80;20944;-76
2022/09/11 07:29:05;;;;;;;3.35;2.95;;;;;;;13.51;100.00;99246.78;1785467;79;21143;-76
2022/09/11 07:31:34;;;;;;;14.68;9.30;;;;;;;13.51;100.00;99244.89;1806541;79;21288;-74
2022/09/11 07:34:01;;;;;;;6.33;4.70;;;;;;;13.55;100.00;99245.13;1700098;82;21636;-75
2022/09/11 07:36:32;;;;;;;4.95;4.05;;;;;;;13.60;100.00;99249.70;1722650;80;20963;-74
2022/09/11 07:39:02;;;;;;;4.20;3.80;;;;;;;13.60;100.00;99249.16;1750607;80;21016;-75
2022/09/11 07:41:30;;;;;;;3.85;2.92;;;;;;;13.64;100.00;99251.56;1718215;82;21058;-74
2022/09/11 07:44:02;;;;;;;4.25;3.12;;;;;;;13.62;100.00;99259.13;1720930;82;21059;-74
2022/09/11 07:46:33;;;;;;;4.37;3.22;;;;;;;13.54;100.00;99256.48;1754319;80;21327;-72
2022/09/11 07:49:16;;;;;;;3.55;2.83;;;;;;;13.52;100.00;99253.81;1773127;80;21075;-73
2022/09/11 07:51:45;;;;;;;;;;;;;;;13.47;100.00;99258.70;1760130;80;21022;-72
2022/09/11 07:54:15;;;;;;;3.25;2.30;;;;;;;13.42;100.00;99256.57;1743402;80;20173;-73
2022/09/11 07:56:56;;;;;;;3.00;2.15;;;;;;;13.43;100.00;99251.41;1742676;80;21141;-73
2022/09/11 07:59:29;;;;;;;3.75;3.40;;;;;;;13.44;100.00;99242.22;1728645;80;21881;-72
2022/09/11 08:02:06;;;;;;;2.60;2.40;;;;;;;13.46;100.00;99247.63;1765101;80;21082;-75
2022/09/11 08:04:38;;;;;;;4.80;4.40;;;;;;;13.41;100.00;99247.66;1762374;80;21058;-75
2022/09/11 08:07:06;;;;;;;3.05;2.47;;;;;;;13.40;100.00;99247.38;1746016;80;21059;-72
2022/09/11 08:09:39;;;;;;;3.17;2.52;;;;;;;13.45;100.00;99242.49;1761414;81;21614;-73
2022/09/11 08:12:06;;;;;;;3.40;3.05;;;;;;;13.51;100.00;99238.69;1759078;80;21161;-77
2022/09/11 08:14:36;;;;;;;2.87;2.55;;;;;;;13.49;100.00;99244.89;1714960;82;21188;-76
2022/09/11 08:17:19;;;;;;;3.52;3.22;;;;;;;13.50;100.00;99246.52;1723499;82;21096;-79
2022/09/11 08:19:50;;;;;;;3.75;3.00;;;;;;;13.50;100.00;99241.92;1734842;82;21509;-76
2022/09/11 08:22:17;;;;;;;3.85;3.55;;;;;;;13.50;100.00;99245.98;1734226;81;21039;-77
2022/09/11 08:24:46;;;;;;;3.33;3.02;;;;;;;13.54;100.00;99241.63;1741162;82;21114;-80
2022/09/11 08:27:14;;;;;;;3.22;2.70;;;;;;;13.54;100.00;99240.27;1736776;81;20947;-77
2022/09/11 08:29:43;;;;;;;2.72;2.52;;;;;;;13.55;100.00;99242.44;1736981;81;21044;-79
2022/09/11 08:32:12;;;;;;;4.37;3.00;;;;;;;13.53;100.00;99241.35;1760096;80;21032;-78
2022/09/11 08:34:42;;;;;;;3.75;3.25;;;;;;;13.47;100.00;99239.80;1746917;81;21560;-73
2022/09/11 08:37:09;;;;;;;2.40;2.27;;;;;;;13.44;100.00;99243.03;1764086;80;20937;-73
2022/09/11 08:39:37;;;;;;;2.55;2.35;;;;;;;13.49;100.00;99252.45;1746552;81;21107;-73
2022/09/11 08:42:13;;;;;;;4.40;2.75;;;;;;;13.48;100.00;99247.33;1731323;81;21080;-72
2022/09/11 08:44:51;;;;;;;3.30;2.90;;;;;;;13.50;100.00;99239.77;1752861;81;21530;-73
2022/09/11 08:47:23;;;;;;;2.80;2.10;;;;;;;13.48;100.00;99245.44;1747993;81;21548;-71
2022/09/11 08:50:22;;;;;;;2.65;2.45;;;;;;;13.42;100.00;99243.88;1714166;82;21096;-81
2022/09/11 08:52:49;;;;;;;2.83;2.62;;;;;;;13.41;100.00;99236.04;1723822;81;20986;-71
2022/09/11 08:55:38;;;;;;;2.72;2.52;;;;;;;13.46;100.00;99233.31;1731188;82;21118;-73
2022/09/11 08:58:35;;;;;;;7.70;6.12;;;;;;;13.51;100.00;99236.79;1752458;81;21117;-70
2022/09/11 09:01:11;;;;;;;10.32;6.37;;;;;;;13.56;100.00;99235.14;1725661;82;21038;-71
2022/09/11 09:04:03;;;;;;;4.20;2.65;;;;;;;13.65;100.00;99242.37;1702099;82;21733;-72
2022/09/11 09:06:55;;;;;;;3.25;2.92;;;;;;;13.71;100.00;99241.80;1740504;81;20971;-72
2022/09/11 09:09:55;;;;;;;3.52;3.22;;;;;;;13.70;100.00;99242.88;1748901;80;20994;-73
2022/09/11 09:12:34;;;;;;;2.58;2.37;;;;;;;13.76;100.00;99241.22;1719779;82;21216;-75
2022/09/11 09:15:41;;;;;;;4.78;3.50;;;;;;;13.76;100.00;99237.17;1740161;81;20927;-81
2022/09/11 09:18:46;;;;;;;3.08;2.80;;;;;;;13.71;100.00;99248.55;1756982;81;21805;-81
2022/09/11 09:21:27;;;;;;;5.12;2.87;;;;;;;13.66;100.00;99252.10;1733258;82;20959;-78
2022/09/11 09:23:55;;;;;;;3.92;3.30;;;;;;;13.57;100.00;99255.67;1731843;79;20920;-78
2022/09/11 09:26:25;;;;;;;2.52;2.33;;;;;;;13.53;100.00;99252.70;1744447;81;20976;-76
2022/09/11 09:28:54;;;;;;;4.30;3.90;;;;;;;13.53;100.00;99244.59;1753258;81;21108;-76
2022/09/11 09:31:28;;;;;;;6.92;3.22;;;;;;;13.56;100.00;99241.89;1756469;81;21045;-77
2022/09/11 09:34:20;;;;;;;3.40;2.77;;;;;;;13.61;100.00;99248.62;1746638;81;20951;-74
2022/09/11 09:37:16;;;;;;;3.10;2.87;;;;;;;13.61;100.00;99250.78;1743681;80;25008;-76
2022/09/11 09:39:43;;;;;;;6.08;4.12;;;;;;;13.64;100.00;99252.10;1733734;82;21058;-75
2022/09/11 09:42:38;;;;;;;2.83;2.62;;;;;;;13.70;100.00;99248.28;1757184;80;21081;-72
2022/09/11 09:45:23;;;;;;;7.10;4.25;;;;;;;13.79;100.00;99246.59;1709795;82;21433;-72
2022/09/11 09:47:49;;;;;;;4.17;3.77;;;;;;;13.78;100.00;99249.84;1755694;81;20991;-73
2022/09/11 09:50:38;;;;;;;4.25;3.75;;;;;;;13.74;100.00;99250.68;1743331;81;21408;-72
2022/09/11 09:53:31;;;;;;;4.87;4.00;;;;;;;13.65;100.00;99253.18;1754566;81;20956;-77
2022/09/11 09:56:03;;;;;;;7.10;4.65;;;;;;;13.57;100.00;99256.48;1750661;81;20960;-79
2022/09/11 09:58:38;;;;;;;7.92;4.78;;;;;;;13.56;100.00;99261.62;1751769;81;21832;-73
2022/09/11 10:01:37;;;;;;;9.93;5.17;;;;;;;13.59;100.00;99254.30;1696107;82;20954;-78
2022/09/11 10:04:16;;;;;;;5.87;5.28;;;;;;;13.63;100.00;99248.59;1671205;80;21614;-77
2022/09/11 10:06:49;;;;;;;4.90;4.45;;;;;;;13.59;100.00;99246.73;1758099;81;21068;-75
2022/09/11 10:09:27;;;;;;;8.35;7.35;;;;;;;13.56;100.00;99247.30;1730471;82;20944;-74
2022/09/11 10:11:59;;;;;;;8.18;5.35;;;;;;;13.56;100.00;99251.35;1739840;81;21530;-74
2022/09/11 10:14:26;;;;;;;6.07;5.47;;;;;;;13.49;100.00;99248.95;1714612;82;21052;-70
2022/09/11 10:16:53;;;;;;;10.00;6.15;;;;;;;13.43;100.00;99242.77;1758960;79;20986;-72
2022/09/11 10:19:41;;;;;;;11.88;6.17;;;;;;;13.39;100.00;99234.15;1762982;79;21047;-70
2022/09/11 10:22:29;;;;;;;8.53;6.47;;;;;;;13.42;100.00;99249.27;1748936;79;21058;-74
2022/09/11 10:25:10;;;;;;;5.75;5.25;;;;;;;13.51;100.00;99242.20;1746378;79;21729;-70
2022/09/11 10:28:07;;;;;;;7.17;5.47;;;;;;;13.59;100.00;99233.22;1756604;79;21002;-70
2022/09/11 10:30:41;;;;;;;6.53;5.33;;;;;;;13.61;100.00;99232.41;1734620;80;21036;-71
2022/09/11 10:33:28;;;;;;;8.55;5.17;;;;;;;13.62;100.00;99240.20;1772776;80;21106;-70
2022/09/11 10:35:55;;;;;;;7.50;6.08;;;;;;;13.66;100.00;99243.18;1747496;80;21022;-71
2022/09/11 10:38:37;;;;;;;11.60;6.53;;;;;;;13.66;100.00;99245.34;1765458;79;21143;-72
2022/09/11 10:41:12;;;;;;;8.45;7.20;;;;;;;13.72;100.00;99247.44;1738797;79;21046;-72
2022/09/11 10:44:00;;;;;;;12.00;7.05;;;;;;;13.76;100.00;99242.58;1794449;78;21058;-70
2022/09/11 10:46:37;;;;;;;10.10;6.40;;;;;;;13.78;100.00;99243.08;1800157;78;21082;-72
2022/09/11 10:49:20;;;;;;;7.45;6.17;;;;;;;13.82;100.00;99244.13;1800608;78;21250;-71
2022/09/11 10:52:11;;;;;;;7.08;6.37;;;;;;;13.89;100.00;99233.81;1789954;79;21781;-69
2022/09/11 10:55:05;;;;;;;8.38;6.20;;;;;;;13.93;100.00;99234.86;1732658;80;21002;-69
2022/09/11 10:57:44;;;;;;;6.67;5.70;;;;;;;13.90;100.00;99228.67;1748532;80;21054;-70
2022/09/11 11:00:28;;;;;;;11.78;5.97;;;;;;;13.89;100.00;99217.59;1767633;81;21543;-69
2022/09/11 11:03:21;;;;;;;9.18;7.58;;;;;;;13.96;100.00;99214.55;1802331;78;21113;-69
2022/09/11 11:06:18;;;;;;;10.48;6.95;;;;;;;13.95;100.00;99212.41;1784454;79;21135;-70
2022/09/11 11:09:27;;;;;;;8.83;7.83;;;;;;;13.95;100.00;99207.01;1785111;79;20992;-69
2022/09/11 11:12:12;;;;;;;9.03;7.67;;;;;;;14.00;100.00;99210.75;1752554;81;21561;-69
2022/09/11 11:15:17;;;;;;;8.38;6.92;;;;;;;14.09;100.00;99215.27;1785826;78;21035;-70
2022/09/11 11:18:28;;;;;;;11.10;8.35;;;;;;;14.08;100.00;99208.78;1786657;79;20983;-70
2022/09/11 11:21:17;;;;;;;8.83;7.00;;;;;;;14.05;100.00;99208.81;1781595;80;21077;-71
2022/09/11 11:24:12;;;;;;;9.33;8.43;;;;;;;14.09;100.00;99207.69;1783875;79;21112;-71
2022/09/11 11:26:48;;;;;;;10.05;7.28;;;;;;;14.09;100.00;99211.20;1785196;79;21023;-70
2022/09/11 11:30:05;;;;;;;10.45;8.78;;;;;;;14.10;100.00;99208.74;1790042;79;20912;-71
2022/09/11 11:33:18;;;;;;;8.98;8.08;;;;;;;14.14;100.00;99204.41;1694843;84;21133;-71
2022/09/11 11:36:03;;;;;;;10.58;9.65;;;;;;;14.23;100.00;99207.29;1774680;78;21102;-70
2022/09/11 11:38:59;;;;;;;11.03;9.75;;;;;;;14.21;100.00;99212.97;1786518;79;21391;-70
2022/09/11 11:41:33;;;;;;;11.70;10.50;;;;;;;14.22;100.00;99217.84;1782185;80;21091;-70
2022/09/11 11:44:05;;;;;;;13.08;10.32;;;;;;;14.20;100.00;99217.30;1802114;79;21059;-71
2022/09/11 11:46:38;;;;;;;11.55;10.40;;;;;;;14.16;100.00;99219.78;1810636;79;21059;-69
2022/09/11 11:49:22;;;;;;;12.37;10.75;;;;;;;14.15;100.00;99218.16;1797565;79;21106;-72
2022/09/11 11:51:57;;;;;;;12.10;10.53;;;;;;;14.16;100.00;99217.08;1796543;79;20924;-71
2022/09/11 11:54:28;;;;;;;12.15;10.75;;;;;;;14.20;100.00;99213.25;1795394;79;21015;-70
2022/09/11 11:57:11;;;;;;;20.00;11.25;;;;;;;14.23;100.00;99215.41;1797653;79;20967;-69
2022/09/11 11:59:55;;;;;;;10.98;10.00;;;;;;;14.25;100.00;99214.55;1814151;79;21051;-69
2022/09/11 12:02:30;;;;;;;12.70;11.43;;;;;;;14.26;100.00;99206.16;1792559;79;21261;-69